Time;durP1;ratioP1;P1;durP2;ratioP2;P2;SDS_P1;SDS_P2;PMS_P1;PMS_P2;Temp;Humidity;BMP_temperature;BMP_pressure;BME280_temperature;BME280_humidity;BME280_pressure;Samples;Min_cycle;Max_cycle;Signal;HPM_P1;HPM_P2
2021/11/12 00:02:31;;;;;;;35.35;19.88;;;;;;;0.76;100.00;93839.09;5061589;28;20107;-82
2021/11/12 00:13:22;;;;;;;29.05;17.38;;;;;;;0.34;100.00;93809.81;5061279;28;20538;-81
2021/11/12 00:15:52;;;;;;;26.60;17.35;;;;;;;0.52;100.00;93832.66;5061039;28;20052;-81
2021/11/12 00:18:20;;;;;;;32.88;18.08;;;;;;;0.61;100.00;93826.03;5061290;28;20160;-80
2021/11/12 00:20:48;;;;;;;80.82;35.85;;;;;;;0.65;100.00;93832.41;5061166;28;20052;-81
2021/11/12 00:23:18;;;;;;;53.00;27.77;;;;;;;0.64;100.00;93830.00;5061287;28;20412;-81
2021/11/12 00:25:47;;;;;;;40.42;21.75;;;;;;;0.68;100.00;93825.50;5060676;28;20571;-81
2021/11/12 00:28:16;;;;;;;27.77;17.15;;;;;;;0.65;100.00;93819.00;5061157;28;20071;-82
2021/11/12 00:30:53;;;;;;;25.98;15.70;;;;;;;0.67;100.00;93822.19;5053861;28;20048;-81
2021/11/12 00:33:39;;;;;;;27.85;15.73;;;;;;;0.68;100.00;93820.47;5047996;28;20049;-81
2021/11/12 00:36:19;;;;;;;26.08;15.63;;;;;;;0.57;100.00;93807.00;5047840;28;20106;-81
2021/11/12 00:38:51;;;;;;;24.25;14.65;;;;;;;0.70;100.00;93814.34;5047672;28;20445;-81
2021/11/12 00:41:23;;;;;;;22.65;14.25;;;;;;;0.54;100.00;93792.09;5047802;28;20140;-80
2021/11/12 00:43:52;;;;;;;23.02;14.70;;;;;;;0.69;100.00;93812.72;5048419;28;20062;-81
2021/11/12 00:46:22;;;;;;;24.83;14.82;;;;;;;0.67;100.00;93807.00;5047614;28;20045;-80
2021/11/12 00:48:51;;;;;;;28.70;16.35;;;;;;;0.50;100.00;93800.88;5047553;28;20045;-81
2021/11/12 00:51:22;;;;;;;31.27;17.27;;;;;;;0.39;100.00;93802.63;5047667;28;20049;-81
2021/11/12 00:53:53;;;;;;;37.05;20.58;;;;;;;0.34;100.00;93801.41;5047026;28;20125;-81
2021/11/12 00:56:23;;;;;;;35.33;18.98;;;;;;;0.38;100.00;93797.69;5047120;28;20048;-81
2021/11/12 00:58:52;;;;;;;35.72;19.73;;;;;;;0.38;100.00;93797.69;5047436;28;20049;-80
2021/11/12 01:01:19;;;;;;;35.78;19.70;;;;;;;0.34;100.00;93796.34;5047177;28;20080;-81
2021/11/12 01:03:47;;;;;;;42.17;21.42;;;;;;;0.38;100.00;93800.22;5046879;28;20037;-80
2021/11/12 01:06:15;;;;;;;36.58;21.23;;;;;;;0.23;100.00;93785.44;5047231;28;20500;-80
2021/11/12 01:08:42;;;;;;;33.92;18.48;;;;;;;0.22;100.00;93786.38;5047205;28;20060;-80
2021/11/12 01:11:12;;;;;;;38.85;23.35;;;;;;;0.14;100.00;93793.81;5047510;28;20049;-80
2021/11/12 01:13:41;;;;;;;43.78;23.50;;;;;;;0.03;100.00;93773.69;5046815;28;20051;-80
2021/11/12 01:16:08;;;;;;;41.75;23.38;;;;;;;0.10;100.00;93770.53;5047123;28;20072;-80
2021/11/12 01:18:36;;;;;;;44.47;26.08;;;;;;;0.09;100.00;93790.88;5046879;28;20106;-80
2021/11/12 01:21:05;;;;;;;38.42;24.23;;;;;;;-0.06;100.00;93753.38;5046916;28;20143;-79
2021/11/12 01:23:32;;;;;;;37.28;23.73;;;;;;;0.23;100.00;93782.91;5047625;28;20064;-79
2021/11/12 01:25:59;;;;;;;37.63;21.80;;;;;;;0.27;100.00;93788.50;5046207;28;20056;-79
2021/11/12 01:28:27;;;;;;;31.65;19.15;;;;;;;0.29;100.00;93781.59;5041388;28;20045;-79
2021/11/12 01:30:54;;;;;;;30.02;17.83;;;;;;;0.30;100.00;93784.91;5030981;28;20049;-80
2021/11/12 01:33:21;;;;;;;32.15;16.83;;;;;;;0.29;100.00;93784.13;5036219;28;20045;-79
2021/11/12 01:35:48;;;;;;;28.75;17.73;;;;;;;0.29;100.00;93776.53;5050788;28;20055;-80
2021/11/12 01:38:16;;;;;;;30.67;18.30;;;;;;;0.26;100.00;93780.13;5051055;28;20412;-80
2021/11/12 01:40:44;;;;;;;28.40;17.85;;;;;;;0.21;100.00;93782.25;5050659;28;20094;-79
2021/11/12 01:43:12;;;;;;;29.17;17.20;;;;;;;0.15;100.00;93779.44;5050001;28;20041;-79
2021/11/12 01:46:03;;;;;;;26.75;16.92;;;;;;;0.01;100.00;93762.94;5050969;28;20045;-79
2021/11/12 01:48:56;;;;;;;36.65;22.15;;;;;;;0.04;100.00;93778.63;5051382;28;20060;-79
2021/11/12 01:51:27;;;;;;;46.47;25.98;;;;;;;-0.05;100.00;93770.13;5051066;28;20489;-79
2021/11/12 01:54:08;;;;;;;34.45;19.92;;;;;;;-0.03;100.00;93768.28;5050750;28;20041;-79
2021/11/12 01:56:40;;;;;;;37.03;22.42;;;;;;;0.01;100.00;93768.00;5050253;28;20056;-79
2021/11/12 01:59:17;;;;;;;32.47;19.88;;;;;;;0.06;100.00;93765.88;5050357;28;20486;-79
2021/11/12 02:01:49;;;;;;;29.15;18.65;;;;;;;0.08;100.00;93764.00;5050529;28;20049;-79
2021/11/12 02:04:18;;;;;;;26.80;16.30;;;;;;;0.08;100.00;93766.53;5050146;28;20040;-79
2021/11/12 02:06:45;;;;;;;24.45;14.88;;;;;;;0.07;100.00;93758.19;5050122;28;20659;-78
2021/11/12 02:09:18;;;;;;;24.88;15.25;;;;;;;0.10;100.00;93759.63;5050162;28;20091;-79
2021/11/12 02:11:48;;;;;;;22.52;14.95;;;;;;;0.02;100.00;93759.47;5049956;28;20501;-79
2021/11/12 02:14:16;;;;;;;21.88;13.35;;;;;;;-0.05;100.00;93759.22;5050069;28;20055;-79
2021/11/12 02:16:44;;;;;;;22.15;14.45;;;;;;;-0.09;100.00;93751.09;5034308;28;20048;-79
2021/11/12 02:19:13;;;;;;;26.40;16.15;;;;;;;-0.23;100.00;93727.00;5049998;28;20497;-79
2021/11/12 02:21:48;;;;;;;26.23;15.95;;;;;;;0.02;100.00;93764.53;5050179;28;20088;-78
2021/11/12 02:24:15;;;;;;;22.50;14.80;;;;;;;0.03;100.00;93758.56;5050049;28;20056;-78
2021/11/12 02:26:45;;;;;;;32.05;19.35;;;;;;;0.02;100.00;93759.47;5049758;28;20049;-78
2021/11/12 02:29:12;;;;;;;30.35;18.15;;;;;;;-0.03;100.00;93757.38;5050124;28;20049;-78
2021/11/12 02:31:40;;;;;;;31.55;18.85;;;;;;;-0.18;100.00;93751.91;5049982;28;20041;-78
2021/11/12 02:34:09;;;;;;;30.42;18.85;;;;;;;-0.21;100.00;93752.94;5049521;28;20057;-79
2021/11/12 02:36:36;;;;;;;31.95;18.85;;;;;;;-0.12;100.00;93760.66;5049949;28;20484;-79
2021/11/12 02:39:07;;;;;;;34.05;18.55;;;;;;;-0.10;100.00;93751.25;5049964;28;20131;-78
2021/11/12 02:41:35;;;;;;;37.92;19.88;;;;;;;-0.09;100.00;93755.38;5050069;28;20045;-79
2021/11/12 02:44:02;;;;;;;33.60;19.75;;;;;;;-0.07;100.00;93750.97;5049502;28;20545;-78
2021/11/12 02:46:30;;;;;;;28.50;18.70;;;;;;;-0.12;100.00;93740.47;5049665;28;20052;-79
2021/11/12 02:48:58;;;;;;;29.67;17.05;;;;;;;-0.10;100.00;93749.50;5049525;28;20056;-78
2021/11/12 02:51:28;;;;;;;29.75;17.60;;;;;;;-0.12;100.00;93746.31;5049664;28;20056;-78
2021/11/12 02:53:57;;;;;;;28.88;17.27;;;;;;;-0.20;100.00;93738.59;5049432;28;20458;-78
2021/11/12 02:56:28;;;;;;;29.13;17.15;;;;;;;-0.12;100.00;93741.28;5049339;28;20052;-78
2021/11/12 02:58:57;;;;;;;26.77;15.77;;;;;;;-0.12;100.00;93737.94;5049426;28;20045;-78
2021/11/12 03:01:26;;;;;;;26.50;16.13;;;;;;;-0.11;100.00;93734.47;5049457;28;20122;-78
2021/11/12 03:03:54;;;;;;;29.83;16.15;;;;;;;-0.11;100.00;93735.28;5049520;28;20047;-78
2021/11/12 03:06:21;;;;;;;25.75;15.18;;;;;;;-0.16;100.00;93732.34;5049363;28;20053;-78
2021/11/12 03:08:48;;;;;;;23.98;14.45;;;;;;;-0.13;100.00;93739.69;5049420;28;20103;-78
2021/11/12 03:11:15;;;;;;;38.90;21.77;;;;;;;-0.20;100.00;93723.44;5049421;28;20060;-78
2021/11/12 03:13:45;;;;;;;31.13;17.95;;;;;;;-0.18;100.00;93729.16;5049250;28;20049;-77
2021/11/12 03:16:13;;;;;;;29.63;18.00;;;;;;;-0.30;100.00;93716.66;5049609;28;20110;-77
2021/11/12 03:18:40;;;;;;;27.98;16.30;;;;;;;-0.21;100.00;93731.94;5049447;28;20416;-77
2021/11/12 03:21:08;;;;;;;25.83;15.10;;;;;;;-0.24;100.00;93733.00;5049224;28;20045;-77
2021/11/12 03:23:38;;;;;;;24.15;14.10;;;;;;;-0.26;100.00;93727.28;5049531;28;20041;-77
2021/11/12 03:26:18;;;;;;;26.90;14.90;;;;;;;-0.22;100.00;93726.13;5049386;28;20049;-77
2021/11/12 03:56:48;;;;;;;32.78;19.80;;;;;;;-0.71;100.00;93725.97;5049077;28;20072;-77
2021/11/12 04:02:04;;;;;;;38.10;24.63;;;;;;;-0.77;100.00;93716.41;5048892;28;20056;-77
2021/11/12 04:04:42;;;;;;;32.97;21.42;;;;;;;-0.77;100.00;93708.81;5049295;28;21075;-77
2021/11/12 04:18:15;;;;;;;22.40;14.50;;;;;;;-0.75;100.00;93714.56;5052195;28;20573;-77
2021/11/12 04:20:54;;;;;;;29.88;18.80;;;;;;;-0.84;100.00;93716.09;5052231;28;20057;-77
2021/11/12 05:51:25;;;;;;;52.03;29.65;;;;;;;-1.23;100.00;93731.84;5050762;28;20060;-77
2021/11/12 05:56:39;;;;;;;51.78;28.90;;;;;;;-1.38;100.00;93714.53;5050522;28;20052;-77
2021/11/12 05:59:06;;;;;;;53.22;28.98;;;;;;;-1.25;100.00;93734.50;5050226;28;20049;-77
2021/11/12 06:01:34;;;;;;;51.15;31.63;;;;;;;-1.27;100.00;93731.31;5050309;28;20103;-77
2021/11/12 06:04:01;;;;;;;60.47;31.88;;;;;;;-1.17;100.00;93743.19;5050571;28;20095;-77
2021/11/12 06:06:28;;;;;;;53.45;31.30;;;;;;;-1.10;100.00;93726.63;5050378;28;20045;-77
2021/11/12 06:08:55;;;;;;;49.28;29.05;;;;;;;-0.95;100.00;93734.66;5050470;28;20045;-77
2021/11/12 06:11:23;;;;;;;54.40;28.27;;;;;;;-0.89;100.00;93719.00;5050639;28;20100;-77
2021/11/12 06:13:52;;;;;;;49.47;26.30;;;;;;;-0.82;100.00;93729.41;5050221;28;20489;-77
2021/11/12 06:16:19;;;;;;;45.15;27.45;;;;;;;-0.73;100.00;93728.66;5050099;28;20041;-77
2021/11/12 06:18:47;;;;;;;40.75;25.38;;;;;;;-0.78;100.00;93709.75;5049631;28;20094;-77
2021/11/12 06:21:13;;;;;;;44.00;26.40;;;;;;;-0.53;100.00;93731.22;5049993;28;20056;-77
2021/11/12 06:23:41;;;;;;;46.85;28.65;;;;;;;-0.46;100.00;93734.81;5050235;28;20045;-77
2021/11/12 06:26:08;;;;;;;47.60;26.88;;;;;;;-0.37;100.00;93724.88;5050102;28;20041;-77
2021/11/12 06:28:35;;;;;;;58.40;28.75;;;;;;;-0.32;100.00;93725.28;5049388;28;20537;-77
2021/11/12 06:31:04;;;;;;;52.35;29.90;;;;;;;-0.22;100.00;93723.59;5050162;28;20045;-77
2021/11/12 06:33:31;;;;;;;54.53;30.75;;;;;;;-0.08;100.00;93735.03;5049684;28;20091;-77
2021/11/12 06:35:59;;;;;;;54.40;32.58;;;;;;;-0.28;100.00;93694.59;5046305;28;20053;-77
2021/11/12 06:38:28;;;;;;;51.67;31.85;;;;;;;0.02;100.00;93732.50;5047566;28;20049;-77
2021/11/12 06:40:57;;;;;;;57.30;35.55;;;;;;;0.15;100.00;93732.25;5049216;28;20055;-77
2021/11/12 06:43:28;;;;;;;55.50;36.88;;;;;;;0.22;100.00;93728.25;5049539;28;20053;-78
2021/11/12 06:51:27;;;;;;;;;;;;;;;0.52;100.00;93728.25;5049699;28;20167;-78
2021/11/12 06:53:56;;;;;;;60.88;38.85;;;;;;;0.52;100.00;93723.19;5049613;28;19921;-78
2021/11/12 06:56:23;;;;;;;72.35;40.05;;;;;;;0.60;100.00;93715.72;5049301;28;20052;-78
2021/11/12 06:58:51;;;;;;;75.30;43.38;;;;;;;0.70;100.00;93713.19;5049481;28;20071;-78
2021/11/12 07:01:18;;;;;;;91.53;48.42;;;;;;;0.87;100.00;93718.44;5049356;28;20056;-78
2021/11/12 07:03:47;;;;;;;87.03;45.45;;;;;;;1.00;100.00;93702.97;5049364;28;20050;-78
2021/11/12 07:06:14;;;;;;;85.25;46.42;;;;;;;1.07;100.00;93688.84;5049412;28;20049;-78
2021/11/12 07:08:41;;;;;;;89.85;52.65;;;;;;;1.22;100.00;93704.38;5049243;28;20045;-78
2021/11/12 07:11:08;;;;;;;67.65;39.03;;;;;;;1.31;100.00;93700.19;5049194;28;20056;-78
2021/11/12 07:13:35;;;;;;;39.10;23.85;;;;;;;1.48;100.00;93693.56;5049022;28;20045;-78
2021/11/12 07:16:02;;;;;;;39.88;21.35;;;;;;;1.59;100.00;93698.44;5048971;28;20516;-78
2021/11/12 07:18:31;;;;;;;44.95;23.92;;;;;;;1.48;100.00;93660.66;5049019;28;20118;-78
2021/11/12 07:20:59;;;;;;;29.38;18.90;;;;;;;1.90;100.00;93699.06;5048877;28;20503;-78
2021/11/12 07:23:27;;;;;;;27.33;16.17;;;;;;;2.13;100.00;93695.16;5049049;28;20575;-78
2021/11/12 07:25:55;;;;;;;29.83;18.08;;;;;;;2.28;100.00;93697.19;5049031;28;20139;-78
2021/11/12 07:28:23;;;;;;;30.95;18.05;;;;;;;2.38;100.00;93689.47;5049140;28;20053;-78
2021/11/12 07:30:51;;;;;;;31.70;17.63;;;;;;;2.42;100.00;93698.41;5049085;28;20080;-79
2021/11/12 07:33:18;;;;;;;44.70;23.42;;;;;;;2.39;100.00;93689.34;5048977;28;20118;-79
2021/11/12 07:35:49;;;;;;;60.55;31.98;;;;;;;2.39;100.00;93684.28;5049172;28;20127;-79
2021/11/12 07:38:21;;;;;;;54.25;32.10;;;;;;;2.38;100.00;93687.75;5049099;28;20049;-79
2021/11/12 07:41:00;;;;;;;60.00;32.70;;;;;;;2.32;100.00;93662.97;5050238;28;20060;-81
2021/11/12 07:46:18;;;;;;;46.33;26.30;;;;;;;2.50;100.00;93678.16;5052852;28;20102;-80
2021/11/12 07:48:45;;;;;;;52.20;27.55;;;;;;;2.67;100.00;93674.00;5052902;28;20049;-80
2021/11/12 07:51:13;;;;;;;55.70;29.75;;;;;;;2.62;100.00;93677.91;5053036;28;20056;-80
2021/11/12 07:53:41;;;;;;;64.82;31.60;;;;;;;2.82;100.00;93675.19;5052563;28;20569;-80
2021/11/12 07:56:11;;;;;;;66.00;33.13;;;;;;;2.83;100.00;93651.41;5052662;28;20052;-81
2021/11/12 07:58:38;;;;;;;61.00;30.27;;;;;;;3.04;100.00;93674.66;5052667;28;20141;-80
2021/11/12 08:01:04;;;;;;;73.45;40.92;;;;;;;3.09;100.00;93658.97;5052561;28;20568;-80
2021/11/12 08:03:32;;;;;;;51.10;29.15;;;;;;;3.21;100.00;93669.66;5052574;28;20049;-80
2021/11/12 08:06:00;;;;;;;61.00;31.40;;;;;;;3.27;100.00;93676.66;5052468;28;20080;-79
2021/11/12 08:08:30;;;;;;;52.88;28.10;;;;;;;3.33;99.38;93672.69;5052506;28;20476;-79
2021/11/12 08:11:01;;;;;;;62.70;31.13;;;;;;;3.38;100.00;93657.81;5052562;28;20057;-79
2021/11/12 08:13:35;;;;;;;60.50;33.92;;;;;;;3.59;100.00;93664.22;5052133;28;20052;-79
2021/11/12 08:16:28;;;;;;;68.78;36.15;;;;;;;3.76;100.00;93669.34;5052604;28;20049;-79
2021/11/12 08:18:58;;;;;;;69.38;37.15;;;;;;;3.89;100.00;93669.66;5052311;28;20144;-78
2021/11/12 08:21:29;;;;;;;64.57;32.28;;;;;;;4.11;100.00;93662.38;5051413;28;20045;-78
2021/11/12 08:24:07;;;;;;;48.50;26.92;;;;;;;3.92;99.33;93636.31;5052185;28;20487;-78
2021/11/12 08:26:44;;;;;;;53.13;29.80;;;;;;;4.24;96.70;93651.72;5051987;28;20128;-78
2021/11/12 08:34:57;;;;;;;57.90;29.75;;;;;;;4.60;98.25;93651.41;5034127;28;20690;-79
2021/11/12 08:37:35;;;;;;;51.88;28.15;;;;;;;4.91;100.00;93649.91;5052332;28;20451;-78
2021/11/12 08:40:11;;;;;;;45.58;22.60;;;;;;;5.02;94.98;93649.56;5051942;28;20096;-78
2021/11/12 08:42:41;;;;;;;59.78;27.30;;;;;;;5.15;94.00;93650.78;5052009;28;20088;-79
2021/11/12 08:45:14;;;;;;;41.33;23.98;;;;;;;5.13;94.84;93645.06;5051611;28;20056;-78
2021/11/12 08:47:44;;;;;;;39.40;22.75;;;;;;;5.18;94.69;93637.69;5051685;28;20049;-78
2021/11/12 08:50:16;;;;;;;48.60;24.60;;;;;;;5.45;95.55;93640.75;5051693;28;20095;-79
2021/11/12 08:52:44;;;;;;;41.55;20.17;;;;;;;5.58;93.01;93642.78;5051380;28;20072;-79
2021/11/12 08:55:12;;;;;;;35.65;19.42;;;;;;;5.47;90.42;93633.75;5051885;28;20045;-78
2021/11/12 08:57:40;;;;;;;39.10;19.95;;;;;;;5.72;92.13;93647.16;5051598;28;20056;-78
2021/11/12 09:00:09;;;;;;;35.97;17.52;;;;;;;5.84;89.40;93634.03;5051742;28;20068;-78
2021/11/12 09:02:36;;;;;;;32.58;16.17;;;;;;;5.87;87.67;93644.69;5051243;28;20056;-78
2021/11/12 09:05:04;;;;;;;33.42;16.58;;;;;;;6.00;86.88;93640.75;5052026;28;20045;-78
2021/11/12 09:07:31;;;;;;;31.55;16.02;;;;;;;6.14;84.77;93641.81;5051420;28;20427;-78
2021/11/12 09:09:58;;;;;;;31.25;15.27;;;;;;;6.23;83.29;93640.78;5051659;28;20074;-79
2021/11/12 09:12:28;;;;;;;34.67;18.50;;;;;;;6.50;88.85;93641.22;5051604;28;20045;-79
2021/11/12 09:14:59;;;;;;;30.48;15.02;;;;;;;6.68;82.50;93643.41;5051245;28;20560;-79
2021/11/12 09:17:29;;;;;;;23.90;14.18;;;;;;;6.74;80.99;93644.47;5051069;28;20053;-79
2021/11/12 09:19:57;;;;;;;25.15;13.10;;;;;;;6.69;79.66;93641.66;5051584;28;20132;-79
2021/11/12 09:22:31;;;;;;;38.80;14.93;;;;;;;6.97;82.95;93630.03;5051264;28;20136;-79
2021/11/12 09:24:59;;;;;;;28.13;12.20;;;;;;;7.04;78.41;93634.25;5051391;28;20133;-79
2021/11/12 09:27:26;;;;;;;19.95;10.80;;;;;;;7.25;77.56;93626.84;5050846;28;20504;-79
2021/11/12 09:29:53;;;;;;;31.23;15.38;;;;;;;7.34;76.69;93618.13;5050893;28;20562;-79
2021/11/12 09:32:21;;;;;;;34.40;16.23;;;;;;;7.61;80.53;93618.41;5051254;28;20496;-79
2021/11/12 09:34:48;;;;;;;35.47;16.95;;;;;;;7.95;84.11;93614.41;5050882;28;20049;-79
2021/11/12 09:37:20;;;;;;;32.25;16.30;;;;;;;8.17;80.54;93599.06;5051156;28;20044;-79
2021/11/12 09:39:53;;;;;;;30.05;15.20;;;;;;;8.46;74.54;93606.75;5050714;28;20136;-79
2021/11/12 09:42:20;;;;;;;32.92;17.70;;;;;;;8.57;74.90;93590.09;5050662;28;20091;-79
2021/11/12 09:44:47;;;;;;;42.15;18.25;;;;;;;8.81;75.26;93599.88;5051062;28;20067;-79
2021/11/12 09:47:16;;;;;;;43.67;17.75;;;;;;;8.84;71.17;93605.63;5050812;28;20057;-79
2021/11/12 09:49:44;;;;;;;44.30;17.23;;;;;;;8.71;75.13;93598.66;5050507;28;20048;-79
2021/11/12 09:52:11;;;;;;;35.13;16.20;;;;;;;8.98;76.71;93588.56;5050491;28;20052;-79
2021/11/12 09:54:38;;;;;;;37.20;18.33;;;;;;;9.15;76.84;93592.38;5050358;28;20586;-79
2021/11/12 09:57:05;;;;;;;38.85;17.67;;;;;;;9.36;76.98;93583.00;5050427;28;20075;-79
2021/11/12 09:59:34;;;;;;;38.92;17.33;;;;;;;9.66;78.52;93580.09;5050591;28;20459;-79
2021/11/12 10:02:03;;;;;;;39.08;15.98;;;;;;;9.88;75.83;93578.19;5050516;28;20056;-79
2021/11/12 10:04:30;;;;;;;38.60;18.45;;;;;;;10.10;72.29;93580.53;5049526;28;20083;-79
2021/11/12 10:07:00;;;;;;;30.60;14.95;;;;;;;10.12;73.63;93555.47;5050712;28;20115;-79
2021/11/12 10:09:27;;;;;;;37.03;14.05;;;;;;;10.31;69.68;93565.94;5050345;28;20135;-79
2021/11/12 10:11:56;;;;;;;27.50;15.27;;;;;;;10.19;69.79;93565.75;5049652;28;20060;-79
2021/11/12 10:14:29;;;;;;;32.10;13.93;;;;;;;10.42;69.99;93577.38;5050302;28;20045;-79
2021/11/12 10:16:58;;;;;;;38.75;15.93;;;;;;;10.59;67.51;93569.28;5049985;28;20060;-79
2021/11/12 10:19:26;;;;;;;34.35;16.02;;;;;;;10.61;65.39;93562.16;5050038;28;20430;-79
2021/11/12 10:21:55;;;;;;;36.72;17.15;;;;;;;10.66;68.25;93552.84;5049887;28;20052;-79
2021/11/12 10:24:27;;;;;;;28.60;13.63;;;;;;;10.55;65.80;93571.44;5049823;28;20056;-79
2021/11/12 10:26:57;;;;;;;28.25;14.30;;;;;;;10.28;64.87;93561.19;5049907;28;20143;-79
2021/11/12 10:29:26;;;;;;;31.13;15.20;;;;;;;10.24;64.34;93558.22;5050110;28;20049;-79
2021/11/12 10:31:57;;;;;;;33.70;16.10;;;;;;;10.49;64.66;93547.38;5049471;28;20076;-80
2021/11/12 10:34:26;;;;;;;33.70;14.70;;;;;;;10.69;65.69;93546.53;5046579;28;20496;-79
2021/11/12 10:36:55;;;;;;;30.00;13.90;;;;;;;10.93;69.35;93549.44;5049372;28;20040;-79
2021/11/12 10:39:32;;;;;;;34.20;13.52;;;;;;;10.78;66.30;93526.56;5034680;28;20071;-79
2021/11/12 10:42:01;;;;;;;21.48;12.38;;;;;;;10.76;63.48;93533.66;5046840;28;20052;-79
2021/11/12 10:44:29;;;;;;;25.02;12.20;;;;;;;10.88;61.90;93521.75;5048891;28;20091;-80
2021/11/12 10:46:56;;;;;;;21.73;11.98;;;;;;;10.66;63.43;93521.25;5049388;28;20045;-80
2021/11/12 10:49:31;;;;;;;20.33;10.93;;;;;;;10.86;61.99;93531.47;5049029;28;20056;-79
2021/11/12 10:52:00;;;;;;;31.88;14.38;;;;;;;11.00;61.08;93513.41;5047574;28;20076;-79
2021/11/12 10:54:42;;;;;;;27.23;13.30;;;;;;;11.10;61.04;93529.19;5049159;28;20550;-79
2021/11/12 10:57:11;;;;;;;25.45;11.77;;;;;;;11.26;62.36;93525.38;5047879;28;20044;-80
2021/11/12 10:59:53;;;;;;;27.13;13.07;;;;;;;11.46;65.59;93514.19;5045014;28;20471;-79
2021/11/12 11:02:27;;;;;;;22.08;11.82;;;;;;;11.74;67.39;93507.84;5045285;28;20048;-80
2021/11/12 11:04:54;;;;;;;23.60;11.80;;;;;;;11.59;58.16;93518.44;5045059;28;20053;-80
2021/11/12 11:07:22;;;;;;;24.42;11.23;;;;;;;11.75;61.29;93512.81;5045111;28;20040;-79
2021/11/12 11:09:55;;;;;;;19.70;9.73;;;;;;;11.60;58.69;93512.31;5044708;28;20056;-80
2021/11/12 11:12:39;;;;;;;21.10;10.55;;;;;;;11.84;61.45;93499.66;5045268;28;20095;-80
2021/11/12 11:15:39;;;;;;;22.92;10.27;;;;;;;12.00;61.83;93488.06;5044774;28;20049;-80
2021/11/12 11:18:23;;;;;;;18.80;9.93;;;;;;;12.08;56.51;93503.25;5040422;28;20114;-79
2021/11/12 11:21:00;;;;;;;21.35;10.52;;;;;;;12.19;60.33;93498.44;5045271;28;20057;-79
2021/11/12 11:23:28;;;;;;;16.48;9.70;;;;;;;12.26;57.96;93483.69;5044967;28;20143;-80
2021/11/12 11:26:02;;;;;;;23.13;9.48;;;;;;;12.48;57.07;93494.38;5044772;28;20493;-80
2021/11/12 11:28:31;;;;;;;23.67;10.13;;;;;;;12.67;60.66;93489.22;5044896;28;20037;-80
2021/11/12 11:30:59;;;;;;;23.10;10.77;;;;;;;12.79;55.64;93489.31;5044731;28;20049;-78
2021/11/12 11:33:26;;;;;;;21.27;8.80;;;;;;;12.93;59.19;93482.19;5044963;28;20171;-78
2021/11/12 11:35:56;;;;;;;19.67;10.23;;;;;;;13.04;58.96;93486.63;5041433;28;20048;-78
2021/11/12 11:38:27;;;;;;;27.70;12.27;;;;;;;13.23;59.38;93491.72;5042823;28;20076;-78
2021/11/12 11:40:55;;;;;;;30.95;11.85;;;;;;;13.19;56.52;93460.44;5044452;28;20232;-78
2021/11/12 11:43:24;;;;;;;23.63;10.63;;;;;;;13.45;56.45;93486.88;5044368;28;20183;-78
2021/11/12 11:45:54;;;;;;;29.58;11.65;;;;;;;13.63;58.15;93487.84;5044904;28;20466;-78
2021/11/12 11:48:21;;;;;;;25.10;11.63;;;;;;;13.75;54.60;93491.22;5044791;28;20049;-78
2021/11/12 11:50:53;;;;;;;24.10;10.57;;;;;;;13.68;52.17;93487.16;5044522;28;20075;-78
2021/11/12 11:53:30;;;;;;;20.10;8.88;;;;;;;13.20;50.65;93477.47;5044410;28;20049;-79
2021/11/12 11:56:16;;;;;;;26.92;9.65;;;;;;;13.07;51.76;93473.31;5044855;28;20049;-79
2021/11/12 11:58:46;;;;;;;24.40;10.68;;;;;;;13.27;53.69;93471.44;5045678;28;20048;-79
2021/11/12 12:01:38;;;;;;;27.48;11.10;;;;;;;13.29;56.48;93469.44;5045295;28;20492;-79
2021/11/12 12:04:31;;;;;;;19.75;9.80;;;;;;;13.48;55.76;93457.28;5044635;28;20050;-78
2021/11/12 12:07:18;;;;;;;21.13;11.02;;;;;;;13.74;56.42;93463.84;5044838;28;20053;-78
2021/11/12 12:09:50;;;;;;;28.17;12.15;;;;;;;13.81;56.21;93458.59;5044123;28;20770;-78
2021/11/12 12:12:39;;;;;;;27.23;11.93;;;;;;;13.99;56.00;93459.50;5044431;28;20098;-79
2021/11/12 12:15:38;;;;;;;22.98;10.90;;;;;;;13.86;53.78;93458.69;5044416;28;20049;-78
2021/11/12 12:18:14;;;;;;;24.77;11.20;;;;;;;13.62;51.94;93440.59;5044448;28;20051;-78
2021/11/12 12:21:00;;;;;;;26.63;12.48;;;;;;;13.81;54.07;93463.75;5044507;28;20747;-79
2021/11/12 12:34:58;;;;;;;18.40;8.70;;;;;;;13.76;52.38;93448.91;5044089;28;20518;-79
2021/11/12 13:22:55;;;;;;;18.88;8.90;;;;;;;13.84;55.49;93419.41;5046752;28;20156;-80
2021/11/12 13:25:29;;;;;;;17.33;9.45;;;;;;;13.74;50.80;93406.25;5047259;28;20132;-79
2021/11/12 13:28:22;;;;;;;18.33;9.45;;;;;;;13.73;52.88;93409.84;5046838;28;20053;-79
2021/11/12 13:30:53;;;;;;;18.02;9.00;;;;;;;13.75;54.50;93402.69;5032172;28;20130;-79
2021/11/12 13:33:26;;;;;;;16.92;9.57;;;;;;;13.72;51.89;93413.44;5046863;28;20091;-79
2021/11/12 13:35:53;;;;;;;16.70;8.30;;;;;;;13.80;51.47;93420.84;5046757;28;20041;-79
2021/11/12 13:38:21;;;;;;;18.75;10.05;;;;;;;13.72;51.08;93413.44;5046938;28;21398;-79
2021/11/12 13:40:48;;;;;;;17.85;9.00;;;;;;;13.69;50.79;93409.50;5046541;28;20049;-79
2021/11/12 13:43:23;;;;;;;22.25;9.77;;;;;;;13.73;50.66;93415.00;5046256;28;20061;-79
2021/11/12 13:45:57;;;;;;;18.75;9.02;;;;;;;13.67;53.29;93411.53;5046762;28;20053;-79
2021/11/12 13:48:24;;;;;;;13.70;7.85;;;;;;;13.67;54.67;93424.44;5046286;28;20049;-80
2021/11/12 13:50:55;;;;;;;18.48;9.27;;;;;;;13.69;54.69;93419.84;5046573;28;20045;-81
2021/11/12 13:53:27;;;;;;;16.45;8.77;;;;;;;13.76;53.19;93412.00;5046341;28;20522;-80
2021/11/12 13:55:55;;;;;;;20.65;10.02;;;;;;;13.73;50.12;93404.69;5046424;28;20091;-79
2021/11/12 13:58:23;;;;;;;19.40;8.88;;;;;;;13.82;49.70;93423.22;5046499;28;20087;-80
2021/11/12 14:00:52;;;;;;;16.85;8.90;;;;;;;13.74;52.78;93414.00;5042652;28;20123;-80
2021/11/12 14:03:20;;;;;;;19.90;10.77;;;;;;;13.57;53.03;93419.81;5044526;28;20459;-80
2021/11/12 14:05:55;;;;;;;20.35;9.93;;;;;;;13.46;54.09;93413.66;5045705;28;20076;-80
2021/11/12 14:08:22;;;;;;;17.55;9.80;;;;;;;13.51;56.30;93417.38;5046011;28;20049;-80
2021/11/12 14:10:52;;;;;;;21.23;9.75;;;;;;;13.43;55.53;93413.28;5045692;28;20381;-80
2021/11/12 14:13:21;;;;;;;26.38;11.30;;;;;;;13.45;58.50;93422.38;5045943;28;20048;-80
2021/11/12 14:16:00;;;;;;;25.95;12.18;;;;;;;13.40;58.99;93417.09;5045974;28;20645;-80
2021/11/12 14:18:41;;;;;;;26.40;12.93;;;;;;;13.38;59.50;93413.16;5045360;28;20143;-80
2021/11/12 14:21:15;;;;;;;29.92;12.75;;;;;;;13.33;59.98;93416.41;5045512;28;20049;-79
2021/11/12 14:24:08;;;;;;;32.03;14.38;;;;;;;13.16;60.37;93405.94;5045795;28;20057;-80
2021/11/12 14:26:45;;;;;;;35.92;16.60;;;;;;;13.23;60.82;93422.88;5044483;28;20689;-79
2021/11/12 14:29:15;;;;;;;38.22;16.85;;;;;;;13.19;61.53;93426.13;5045350;28;20485;-79
2021/11/12 14:32:13;;;;;;;39.38;18.48;;;;;;;13.15;60.46;93432.72;5045461;28;20053;-81
2021/11/12 14:35:00;;;;;;;33.45;15.93;;;;;;;12.42;61.38;93340.66;5045637;28;20048;-82
2021/11/12 14:37:38;;;;;;;30.50;15.55;;;;;;;12.95;60.26;93426.03;5045052;28;20064;-82
2021/11/12 14:40:09;;;;;;;31.90;16.77;;;;;;;12.92;59.43;93431.63;5045405;28;20508;-83
2021/11/12 14:42:47;;;;;;;31.88;18.30;;;;;;;12.65;59.70;93408.78;5045376;28;20067;-82
2021/11/12 14:45:21;;;;;;;36.63;19.25;;;;;;;12.67;61.78;93428.16;5045311;28;20485;-82
2021/11/12 14:47:58;;;;;;;34.40;18.95;;;;;;;12.59;63.07;93423.28;5044942;28;20072;-82
2021/11/12 14:50:45;;;;;;;34.95;19.00;;;;;;;12.45;64.70;93421.91;5044490;28;20504;-82
2021/11/12 14:53:19;;;;;;;40.78;19.75;;;;;;;12.45;64.72;93430.41;5045000;28;20040;-82
2021/11/12 14:55:50;;;;;;;48.97;26.13;;;;;;;12.17;65.58;93418.78;5045217;28;20045;-82
2021/11/12 14:58:19;;;;;;;58.58;25.65;;;;;;;11.86;66.31;93400.66;5045345;28;20045;-82
2021/11/12 15:00:47;;;;;;;56.58;26.65;;;;;;;11.93;66.95;93435.84;5044669;28;20053;-82
2021/11/12 15:03:14;;;;;;;42.78;23.10;;;;;;;11.74;66.60;93421.16;5044869;28;20126;-82
2021/11/12 15:05:42;;;;;;;41.22;21.98;;;;;;;11.69;66.04;93428.72;5045038;28;20135;-82
2021/11/12 15:08:13;;;;;;;49.10;23.73;;;;;;;11.71;68.15;93451.69;5044844;28;20056;-83